Time;durP1;ratioP1;P1;durP2;ratioP2;P2;SDS_P1;SDS_P2;PMS_P1;PMS_P2;Temp;Humidity;BMP_temperature;BMP_pressure;BME280_temperature;BME280_humidity;BME280_pressure;Samples;Min_cycle;Max_cycle;Signal;HPM_P1;HPM_P2
2022/04/17 00:01:30;;;;;;;;;9.00;9.00;;;;;;;;5126445;27;45300;-74
2022/04/17 00:03:55;;;;;;;;;7.00;7.00;;;;;;;;5127173;27;45218;-74
2022/04/17 00:06:20;;;;;;;;;7.00;6.00;;;;;;;;5103663;27;47443;-75
2022/04/17 00:08:45;;;;;;;;;9.00;8.00;;;;;;;;5122176;27;45218;-74
2022/04/17 00:11:11;;;;;;;;;15.00;14.67;;;;;;;;5122338;27;45288;-74
2022/04/17 00:13:36;;;;;;;;;12.00;11.00;;;;;;;;5122324;27;45462;-74
2022/04/17 00:16:02;;;;;;;;;11.00;11.00;;;;;;;;5103141;27;48308;-75
2022/04/17 00:18:27;;;;;;;;;12.00;12.00;;;;;;;;5122074;27;45271;-74
2022/04/17 00:20:52;;;;;;;;;10.00;10.00;;;;;;;;5103476;27;45292;-75
2022/04/17 00:23:17;;;;;;;;;12.67;12.00;;;;;;;;5122534;27;45453;-74
2022/04/17 00:25:42;;;;;;;;;7.33;7.33;;;;;;;;5122786;27;46380;-74
2022/04/17 00:28:09;;;;;;;;;6.00;6.00;;;;;;;;5123334;27;45178;-74
2022/04/17 00:30:34;;;;;;;;;8.00;7.33;;;;;;;;5122895;27;45267;-74
2022/04/17 00:32:59;;;;;;;;;6.00;6.00;;;;;;;;5122718;27;45433;-74
2022/04/17 00:35:24;;;;;;;;;6.67;6.67;;;;;;;;5122419;27;46244;-74
2022/04/17 00:37:50;;;;;;;;;7.00;6.00;;;;;;;;5103749;27;45296;-74
2022/04/17 00:40:15;;;;;;;;;9.00;9.00;;;;;;;;5104746;27;45271;-74
2022/04/17 00:42:41;;;;;;;;;7.00;7.00;;;;;;;;5103762;27;46326;-74
2022/04/17 00:45:06;;;;;;;;;7.00;7.00;;;;;;;;5102381;27;48075;-75
2022/04/17 00:47:32;;;;;;;;;6.67;6.67;;;;;;;;5121713;27;45321;-74
2022/04/17 00:49:57;;;;;;;;;7.33;7.33;;;;;;;;5103663;27;45453;-75
2022/04/17 00:52:23;;;;;;;;;6.00;6.00;;;;;;;;5082200;27;46992;-74
2022/04/17 00:54:49;;;;;;;;;9.33;6.00;;;;;;;;5101079;27;45543;-74
2022/04/17 00:57:17;;;;;;;;;8.33;6.67;;;;;;;;5082698;27;45718;-75
2022/04/17 00:59:46;;;;;;;;;7.00;7.00;;;;;;;;5103433;27;45285;-74
2022/04/17 01:02:14;;;;;;;;;9.00;9.00;;;;;;;;5100687;27;45372;-74
2022/04/17 01:04:39;;;;;;;;;9.00;7.67;;;;;;;;5087312;27;47501;-74
2022/04/17 01:07:05;;;;;;;;;7.33;6.33;;;;;;;;5087446;27;45710;-74
2022/04/17 01:09:30;;;;;;;;;8.00;5.33;;;;;;;;5106222;27;45215;-74
2022/04/17 01:11:56;;;;;;;;;7.00;7.00;;;;;;;;5103967;27;45356;-75
2022/04/17 01:14:21;;;;;;;;;7.00;7.00;;;;;;;;5107403;27;45263;-74
2022/04/17 01:16:46;;;;;;;;;7.33;7.00;;;;;;;;5104046;27;45196;-74
2022/04/17 01:19:12;;;;;;;;;9.00;8.00;;;;;;;;5104694;27;45481;-74
2022/04/17 01:21:38;;;;;;;;;7.00;7.00;;;;;;;;5085619;27;46441;-74
2022/04/17 01:26:57;;;;;;;;;6.33;6.00;;;;;;;;5104427;27;45276;-74
2022/04/17 01:29:32;;;;;;;;;7.00;7.00;;;;;;;;5104098;27;45291;-74
2022/04/17 01:31:58;;;;;;;;;7.00;6.00;;;;;;;;5102638;27;45426;-74
2022/04/17 01:34:24;;;;;;;;;6.00;6.00;;;;;;;;5102558;27;46096;-74
2022/04/17 01:36:50;;;;;;;;;7.33;7.33;;;;;;;;5103082;27;45282;-74
2022/04/17 01:39:15;;;;;;;;;7.67;6.00;;;;;;;;5105601;27;45299;-74
2022/04/17 01:41:41;;;;;;;;;7.00;7.00;;;;;;;;5086270;27;45990;-75
2022/04/17 01:44:07;;;;;;;;;9.00;8.33;;;;;;;;5103426;27;46149;-74
2022/04/17 01:46:33;;;;;;;;;7.00;7.00;;;;;;;;5102925;27;45321;-74
2022/04/17 01:48:59;;;;;;;;;6.67;6.67;;;;;;;;5112763;27;45222;-74
2022/04/17 01:51:24;;;;;;;;;7.00;6.00;;;;;;;;5106309;27;46096;-74
2022/04/17 01:53:49;;;;;;;;;7.00;6.00;;;;;;;;5125750;27;46032;-74
2022/04/17 01:56:15;;;;;;;;;5.67;5.00;;;;;;;;5124144;27;45227;-74
2022/04/17 01:58:40;;;;;;;;;7.67;7.67;;;;;;;;5126746;27;45245;-74
2022/04/17 02:01:05;;;;;;;;;6.00;6.00;;;;;;;;5127519;27;45525;-74
2022/04/17 02:03:31;;;;;;;;;7.33;6.67;;;;;;;;5127642;27;46107;-74
2022/04/17 02:05:56;;;;;;;;;7.00;7.00;;;;;;;;5128226;27;45160;-74
2022/04/17 02:08:21;;;;;;;;;7.00;7.00;;;;;;;;5127326;27;45253;-74
2022/04/17 02:10:47;;;;;;;;;9.67;8.67;;;;;;;;5129683;27;45217;-75
2022/04/17 02:13:12;;;;;;;;;8.00;7.00;;;;;;;;5110577;27;48076;-74
2022/04/17 02:15:37;;;;;;;;;6.67;6.33;;;;;;;;5127625;27;45220;-74
2022/04/17 02:18:02;;;;;;;;;7.33;7.33;;;;;;;;5127976;27;45264;-74
2022/04/17 02:20:28;;;;;;;;;5.00;5.00;;;;;;;;5109470;27;46400;-74
2022/04/17 02:22:53;;;;;;;;;5.00;5.00;;;;;;;;5108241;27;46960;-75
2022/04/17 02:25:18;;;;;;;;;8.00;7.33;;;;;;;;5127184;27;45203;-74
2022/04/17 02:27:44;;;;;;;;;7.67;7.33;;;;;;;;5125114;27;45294;-75
2022/04/17 02:30:09;;;;;;;;;6.00;5.33;;;;;;;;5125822;27;45345;-75
2022/04/17 02:32:34;;;;;;;;;7.67;6.33;;;;;;;;5125953;27;45348;-74
2022/04/17 02:35:00;;;;;;;;;6.00;6.00;;;;;;;;5119580;27;45723;-74
2022/04/17 02:37:25;;;;;;;;;7.67;6.00;;;;;;;;5111951;27;45362;-74
2022/04/17 02:39:50;;;;;;;;;8.00;8.00;;;;;;;;5111671;27;45297;-74
2022/04/17 02:42:15;;;;;;;;;7.00;6.00;;;;;;;;5147173;27;45349;-74
2022/04/17 02:44:41;;;;;;;;;7.33;6.00;;;;;;;;5147069;27;45251;-74
2022/04/17 02:50:07;;;;;;;;;4.67;4.67;;;;;;;;5083106;28;45329;-74
2022/04/17 02:52:32;;;;;;;;;7.00;6.00;;;;;;;;5120800;27;48564;-74
2022/04/17 02:54:57;;;;;;;;;9.00;7.00;;;;;;;;5147832;27;45174;-74
2022/04/17 02:57:23;;;;;;;;;5.33;5.33;;;;;;;;5128573;27;45293;-74
2022/04/17 02:59:48;;;;;;;;;6.67;6.67;;;;;;;;5127798;27;45513;-75
2022/04/17 03:07:52;;;;;;;;;7.33;7.00;;;;;;;;5123043;27;45294;-74
2022/04/17 03:10:18;;;;;;;;;6.33;6.33;;;;;;;;5127645;27;46282;-74
2022/04/17 03:12:43;;;;;;;;;7.00;5.00;;;;;;;;5148075;27;45374;-74
2022/04/17 03:15:09;;;;;;;;;8.00;6.67;;;;;;;;5143092;27;45284;-74
2022/04/17 03:17:34;;;;;;;;;6.00;5.00;;;;;;;;5126623;27;45372;-74
2022/04/17 03:19:59;;;;;;;;;5.33;5.33;;;;;;;;5127844;27;45211;-75
2022/04/17 03:22:25;;;;;;;;;6.33;6.33;;;;;;;;5127208;27;45398;-74
2022/04/17 03:24:51;;;;;;;;;6.67;5.67;;;;;;;;5126285;27;45297;-74
2022/04/17 03:27:16;;;;;;;;;5.67;5.33;;;;;;;;5126917;27;45292;-74
2022/04/17 03:29:41;;;;;;;;;7.00;6.67;;;;;;;;5106980;27;46822;-74
2022/04/17 03:32:06;;;;;;;;;7.00;6.67;;;;;;;;5106677;27;46856;-74
2022/04/17 03:34:32;;;;;;;;;6.33;6.33;;;;;;;;5125081;27;45274;-74
2022/04/17 03:36:58;;;;;;;;;7.33;7.00;;;;;;;;5125832;27;45583;-74
2022/04/17 03:39:23;;;;;;;;;6.67;6.67;;;;;;;;5126975;27;45356;-74
2022/04/17 03:41:48;;;;;;;;;5.50;5.50;;;;;;;;5125686;27;45591;-74
2022/04/17 03:44:13;;;;;;;;;6.00;6.00;;;;;;;;5125927;27;45340;-74
2022/04/17 03:46:39;;;;;;;;;6.50;6.50;;;;;;;;5125655;27;45321;-74
2022/04/17 03:49:04;;;;;;;;;7.33;7.33;;;;;;;;5124099;27;45278;-74
2022/04/17 03:51:29;;;;;;;;;7.00;7.00;;;;;;;;5105345;27;47106;-74
2022/04/17 03:53:54;;;;;;;;;6.67;6.67;;;;;;;;5105620;27;45929;-74
2022/04/17 03:56:19;;;;;;;;;7.00;7.00;;;;;;;;5124521;27;45231;-76
2022/04/17 03:58:45;;;;;;;;;7.25;7.25;;;;;;;;5105986;27;47000;-75
2022/04/17 04:01:10;;;;;;;;;7.00;6.00;;;;;;;;5124155;27;46061;-75
2022/04/17 04:03:35;;;;;;;;;8.00;7.00;;;;;;;;5124953;27;45189;-74
2022/04/17 04:06:01;;;;;;;;;6.00;6.00;;;;;;;;5105575;27;45189;-74
2022/04/17 04:08:26;;;;;;;;;7.00;7.00;;;;;;;;5124677;27;45263;-74
2022/04/17 04:10:51;;;;;;;;;8.00;8.00;;;;;;;;5104761;27;47981;-74
2022/04/17 04:13:16;;;;;;;;;9.75;8.00;;;;;;;;5123102;27;45205;-74
2022/04/17 04:15:41;;;;;;;;;7.00;7.00;;;;;;;;5123480;27;45646;-74
2022/04/17 04:18:07;;;;;;;;;8.00;8.00;;;;;;;;5123256;27;45310;-74
2022/04/17 04:20:32;;;;;;;;;6.00;4.33;;;;;;;;5122955;27;45288;-74
2022/04/17 04:22:57;;;;;;;;;7.00;7.00;;;;;;;;5123535;27;45267;-74
2022/04/17 04:25:22;;;;;;;;;6.00;5.33;;;;;;;;5104465;27;45318;-74
2022/04/17 04:30:31;;;;;;;;;6.33;6.33;;;;;;;;5122801;27;45277;-74
2022/04/17 04:32:57;;;;;;;;;8.33;7.33;;;;;;;;5122425;27;45369;-74
2022/04/17 04:35:23;;;;;;;;;5.67;5.33;;;;;;;;5103812;27;45230;-74
2022/04/17 04:37:48;;;;;;;;;7.25;5.75;;;;;;;;5122792;27;45249;-74
2022/04/17 04:40:15;;;;;;;;;6.67;6.33;;;;;;;;5123012;27;45289;-74
2022/04/17 04:42:40;;;;;;;;;5.00;5.00;;;;;;;;5103902;27;45353;-74
2022/04/17 04:47:50;;;;;;;;;3.00;3.00;;;;;;;;5125928;27;45338;-74
2022/04/17 04:50:16;;;;;;;;;5.50;5.00;;;;;;;;5124481;27;45470;-74
2022/04/17 04:52:41;;;;;;;;;6.33;6.33;;;;;;;;5125208;27;45411;-76
2022/04/17 04:55:06;;;;;;;;;5.00;5.00;;;;;;;;5126817;27;45290;-74
2022/04/17 04:57:34;;;;;;;;;6.00;6.00;;;;;;;;5106619;27;45943;-74
2022/04/17 05:00:00;;;;;;;;;5.33;5.33;;;;;;;;5104298;27;47216;-73
2022/04/17 05:02:25;;;;;;;;;5.00;5.00;;;;;;;;5122500;27;45278;-74
2022/04/17 05:04:51;;;;;;;;;7.67;7.00;;;;;;;;5121442;27;45240;-74
2022/04/17 05:07:16;;;;;;;;;6.33;6.33;;;;;;;;5103004;27;46132;-75
2022/04/17 05:09:41;;;;;;;;;6.33;6.33;;;;;;;;5121244;27;45472;-74
2022/04/17 05:12:06;;;;;;;;;5.67;5.67;;;;;;;;5102794;27;45940;-74
2022/04/17 05:14:31;;;;;;;;;8.75;7.50;;;;;;;;5102870;27;45593;-74
2022/04/17 05:16:57;;;;;;;;;5.00;5.00;;;;;;;;5100549;27;45685;-74
2022/04/17 05:19:24;;;;;;;;;8.75;6.00;;;;;;;;5081890;27;47242;-73
2022/04/17 05:21:51;;;;;;;;;5.00;4.67;;;;;;;;5100133;27;45394;-74
2022/04/17 05:24:17;;;;;;;;;7.50;7.00;;;;;;;;5100672;27;45290;-74
2022/04/17 05:26:42;;;;;;;;;6.00;6.00;;;;;;;;5081761;27;45542;-74
2022/04/17 05:29:08;;;;;;;;;7.50;6.25;;;;;;;;5100246;27;45334;-74
2022/04/17 05:31:33;;;;;;;;;6.25;6.25;;;;;;;;5101764;27;45264;-74
2022/04/17 05:33:58;;;;;;;;;8.25;8.25;;;;;;;;5103744;27;45496;-74
2022/04/17 05:36:23;;;;;;;;;7.00;7.00;;;;;;;;5085295;27;46082;-74
2022/04/17 05:38:49;;;;;;;;;8.00;7.50;;;;;;;;5103717;27;45800;-74
2022/04/17 05:41:14;;;;;;;;;7.67;7.67;;;;;;;;5085310;27;45642;-74
2022/04/17 05:43:40;;;;;;;;;8.50;7.25;;;;;;;;5104027;27;45215;-75
2022/04/17 05:46:05;;;;;;;;;8.00;6.67;;;;;;;;5103459;27;45190;-74
2022/04/17 05:48:30;;;;;;;;;10.00;7.67;;;;;;;;5108551;27;46371;-74
2022/04/17 05:50:56;;;;;;;;;7.25;7.25;;;;;;;;5124115;27;45199;-74
2022/04/17 05:53:21;;;;;;;;;8.00;6.33;;;;;;;;5124097;27;45264;-75
2022/04/17 05:55:47;;;;;;;;;8.00;7.00;;;;;;;;5126489;27;45460;-74
2022/04/17 05:58:12;;;;;;;;;7.25;7.25;;;;;;;;5119671;27;46161;-76
2022/04/17 06:00:41;;;;;;;;;9.33;7.33;;;;;;;;5140796;27;45206;-74
2022/04/17 06:03:06;;;;;;;;;11.00;8.50;;;;;;;;5144825;27;45343;-74
2022/04/17 06:05:31;;;;;;;;;8.25;6.25;;;;;;;;5144252;27;45312;-75
2022/04/17 06:07:57;;;;;;;;;11.75;10.75;;;;;;;;5144462;27;45577;-74
2022/04/17 06:10:22;;;;;;;;;7.25;7.25;;;;;;;;5144599;27;45350;-74
2022/04/17 06:12:47;;;;;;;;;10.00;7.25;;;;;;;;5108868;27;45327;-75
2022/04/17 06:15:12;;;;;;;;;7.50;7.00;;;;;;;;5123616;27;45478;-74
2022/04/17 06:17:38;;;;;;;;;8.00;8.00;;;;;;;;5105136;27;47225;-75
2022/04/17 06:20:05;;;;;;;;;7.33;6.67;;;;;;;;5104751;27;45305;-75
2022/04/17 06:22:30;;;;;;;;;8.00;8.00;;;;;;;;5123530;27;45234;-75
2022/04/17 06:24:56;;;;;;;;;6.00;6.00;;;;;;;;5123487;27;45175;-78
2022/04/17 06:27:21;;;;;;;;;6.25;6.25;;;;;;;;5123273;27;45556;-77
2022/04/17 06:29:46;;;;;;;;;6.00;5.00;;;;;;;;5104865;27;45907;-78
2022/04/17 06:32:11;;;;;;;;;6.00;6.00;;;;;;;;5123481;27;45493;-77
2022/04/17 06:34:36;;;;;;;;;7.00;6.00;;;;;;;;5123354;27;45195;-76
2022/04/17 06:37:02;;;;;;;;;6.50;6.50;;;;;;;;5123057;27;46090;-75
2022/04/17 06:39:27;;;;;;;;;7.00;7.00;;;;;;;;5104883;27;46072;-77
2022/04/17 06:41:54;;;;;;;;;8.00;8.00;;;;;;;;5123253;27;45292;-76
2022/04/17 06:44:19;;;;;;;;;8.00;7.00;;;;;;;;5122212;27;45313;-74
2022/04/17 06:46:45;;;;;;;;;5.00;5.00;;;;;;;;5117578;27;45304;-77
2022/04/17 06:49:10;;;;;;;;;7.33;7.33;;;;;;;;5130230;27;45415;-75
2022/04/17 06:51:35;;;;;;;;;7.67;6.67;;;;;;;;5121982;27;45320;-76
2022/04/17 06:54:00;;;;;;;;;9.33;9.33;;;;;;;;5119029;27;45412;-76
2022/04/17 06:56:26;;;;;;;;;8.67;8.67;;;;;;;;5117645;27;45349;-77
2022/04/17 06:58:51;;;;;;;;;8.67;7.67;;;;;;;;5120443;27;45451;-75
2022/04/17 07:01:16;;;;;;;;;10.00;8.67;;;;;;;;5121063;27;45381;-75
2022/04/17 07:03:41;;;;;;;;;9.00;8.00;;;;;;;;5121147;27;45332;-74
2022/04/17 07:06:07;;;;;;;;;8.00;8.00;;;;;;;;5102033;27;47370;-74
2022/04/17 07:08:32;;;;;;;;;7.67;7.00;;;;;;;;5120706;27;45274;-73
2022/04/17 07:10:57;;;;;;;;;7.67;7.67;;;;;;;;5121240;27;45448;-74
2022/04/17 07:13:23;;;;;;;;;7.00;6.67;;;;;;;;5120741;27;45551;-74
2022/04/17 07:15:49;;;;;;;;;7.67;7.67;;;;;;;;5102215;27;46888;-76
2022/04/17 07:18:14;;;;;;;;;7.67;7.67;;;;;;;;5120678;27;45235;-74
2022/04/17 07:20:40;;;;;;;;;7.33;7.00;;;;;;;;5121202;27;45190;-74
2022/04/17 07:23:06;;;;;;;;;7.67;7.67;;;;;;;;5119072;27;45458;-76
2022/04/17 07:25:31;;;;;;;;;6.00;6.00;;;;;;;;5100407;27;47111;-75
2022/04/17 07:27:57;;;;;;;;;6.67;6.33;;;;;;;;5106010;27;45287;-73
2022/04/17 07:30:23;;;;;;;;;9.33;7.00;;;;;;;;5123732;27;45341;-74
2022/04/17 07:32:52;;;;;;;;;9.33;7.00;;;;;;;;5118617;27;45516;-76
2022/04/17 07:35:18;;;;;;;;;9.33;8.00;;;;;;;;5115051;27;45294;-75
2022/04/17 07:37:50;;;;;;;;;7.67;7.00;;;;;;;;5096416;27;45413;-75
2022/04/17 07:40:21;;;;;;;;;6.33;6.33;;;;;;;;5113897;27;45378;-74
2022/04/17 07:42:47;;;;;;;;;5.67;5.00;;;;;;;;5097946;27;46125;-74
2022/04/17 07:45:13;;;;;;;;;8.00;8.00;;;;;;;;5107226;27;45818;-74
2022/04/17 07:47:38;;;;;;;;;6.33;5.67;;;;;;;;5118256;27;45358;-74
2022/04/17 07:50:05;;;;;;;;;8.67;6.33;;;;;;;;5116027;27;45365;-72
2022/04/17 07:52:30;;;;;;;;;6.00;5.67;;;;;;;;5122989;27;45358;-73
2022/04/17 07:54:55;;;;;;;;;9.33;9.00;;;;;;;;5113523;27;46256;-73
2022/04/17 07:57:20;;;;;;;;;6.33;6.33;;;;;;;;5111677;27;45427;-73
2022/04/17 07:59:46;;;;;;;;;6.00;6.00;;;;;;;;5096070;27;45345;-74
2022/04/17 08:02:39;;;;;;;;;6.00;6.00;;;;;;;;5128725;27;45590;-74
2022/04/17 08:04:59;;;;;;;;;9.00;6.00;;;;;;;;5139017;27;46009;-73
2022/04/17 08:07:24;;;;;;;;;6.67;6.00;;;;;;;;5108486;27;45124;-75
2022/04/17 08:09:50;;;;;;;;;7.33;7.33;;;;;;;;5108766;27;45347;-73
2022/04/17 08:12:15;;;;;;;;;9.33;8.00;;;;;;;;5108364;27;45318;-73
2022/04/17 08:14:40;;;;;;;;;7.33;7.33;;;;;;;;5113303;27;46362;-73
2022/04/17 08:17:05;;;;;;;;;5.33;5.33;;;;;;;;5102698;27;45837;-72
2022/04/17 08:19:32;;;;;;;;;6.67;6.67;;;;;;;;5097633;27;45274;-72
2022/04/17 08:22:00;;;;;;;;;6.33;6.33;;;;;;;;5117893;27;45338;-72
2022/04/17 08:24:25;;;;;;;;;8.33;7.33;;;;;;;;5103197;27;46193;-74
2022/04/17 08:26:51;;;;;;;;;7.67;7.67;;;;;;;;5113662;27;45365;-73
2022/04/17 08:29:19;;;;;;;;;6.33;6.33;;;;;;;;5097804;27;45488;-74
2022/04/17 08:31:44;;;;;;;;;8.33;7.33;;;;;;;;5101884;27;45899;-74
2022/04/17 08:34:10;;;;;;;;;6.00;6.00;;;;;;;;5099346;27;48110;-74
2022/04/17 08:36:35;;;;;;;;;5.67;5.67;;;;;;;;5120169;27;45315;-74
2022/04/17 08:39:00;;;;;;;;;8.33;7.67;;;;;;;;5120051;27;45281;-73
2022/04/17 08:41:27;;;;;;;;;6.00;6.00;;;;;;;;5119731;27;45267;-74
2022/04/17 08:43:52;;;;;;;;;5.00;4.00;;;;;;;;5121294;27;45554;-74
2022/04/17 08:46:17;;;;;;;;;6.00;6.00;;;;;;;;5102590;27;45233;-74
2022/04/17 08:48:42;;;;;;;;;3.33;3.33;;;;;;;;5102552;27;45303;-73
2022/04/17 08:51:08;;;;;;;;;7.33;5.00;;;;;;;;5120481;27;45460;-74
2022/04/17 08:53:34;;;;;;;;;6.00;6.00;;;;;;;;5102446;27;47843;-73
2022/04/17 08:55:59;;;;;;;;;5.67;5.67;;;;;;;;5120760;27;45309;-74
2022/04/17 08:58:25;;;;;;;;;3.00;3.00;;;;;;;;5102615;27;45409;-74
2022/04/17 09:00:50;;;;;;;;;5.00;5.00;;;;;;;;5121097;27;45254;-74
2022/04/17 09:03:16;;;;;;;;;6.00;4.33;;;;;;;;5120639;27;45451;-74
2022/04/17 09:05:41;;;;;;;;;5.00;5.00;;;;;;;;5119842;27;45331;-74
2022/04/17 09:08:16;;;;;;;;;4.00;4.00;;;;;;;;5102302;27;45351;-74
2022/04/17 09:10:52;;;;;;;;;4.67;4.00;;;;;;;;5121090;27;45480;-73
2022/04/17 09:13:24;;;;;;;;;3.00;3.00;;;;;;;;5120839;27;45630;-74
2022/04/17 09:15:49;;;;;;;;;4.67;4.67;;;;;;;;5115068;27;45559;-75
2022/04/17 09:18:17;;;;;;;;;4.67;3.67;;;;;;;;5090646;27;45450;-74
2022/04/17 09:20:49;;;;;;;;;3.67;2.33;;;;;;;;5087444;27;46311;-74
2022/04/17 09:23:14;;;;;;;;;3.00;3.00;;;;;;;;5085360;27;46181;-75
2022/04/17 09:25:43;;;;;;;;;4.67;4.00;;;;;;;;5115710;27;45255;-74
2022/04/17 09:28:08;;;;;;;;;5.00;5.00;;;;;;;;5117037;27;45255;-76
2022/04/17 09:30:35;;;;;;;;;3.00;3.00;;;;;;;;5114786;27;45410;-75
2022/04/17 09:33:04;;;;;;;;;2.67;2.67;;;;;;;;5120117;27;46460;-76
2022/04/17 09:35:30;;;;;;;;;4.67;4.33;;;;;;;;5101710;27;45348;-76
2022/04/17 09:37:56;;;;;;;;;3.33;3.33;;;;;;;;5099337;27;45358;-75
2022/04/17 09:40:22;;;;;;;;;4.67;4.67;;;;;;;;5120155;27;45503;-76
2022/04/17 09:42:50;;;;;;;;;4.00;4.00;;;;;;;;5101426;27;47190;-75
2022/04/17 09:45:15;;;;;;;;;3.00;3.00;;;;;;;;5119923;27;45274;-78
2022/04/17 09:47:54;;;;;;;;;4.00;4.00;;;;;;;;5099052;27;45271;-76
2022/04/17 09:50:28;;;;;;;;;3.33;3.33;;;;;;;;5118645;27;45390;-75
2022/04/17 09:52:53;;;;;;;;;3.00;3.00;;;;;;;;5113165;27;45583;-77
2022/04/17 09:55:25;;;;;;;;;3.00;3.00;;;;;;;;5114585;27;45460;-76
2022/04/17 09:57:55;;;;;;;;;3.67;3.67;;;;;;;;5120197;27;45285;-78
2022/04/17 10:00:21;;;;;;;;;4.67;4.67;;;;;;;;5100799;27;47690;-78
2022/04/17 10:02:46;;;;;;;;;4.33;4.33;;;;;;;;5118888;27;46160;-79
2022/04/17 10:05:13;;;;;;;;;4.00;4.00;;;;;;;;5120130;27;45387;-76
2022/04/17 10:07:40;;;;;;;;;13.33;11.33;;;;;;;;5101565;27;45350;-75
2022/04/17 10:10:06;;;;;;;;;8.00;8.00;;;;;;;;5119934;27;45321;-73
2022/04/17 10:12:34;;;;;;;;;6.00;5.33;;;;;;;;5119840;27;46389;-76
2022/04/17 10:15:04;;;;;;;;;4.00;4.00;;;;;;;;5101015;27;45346;-75
2022/04/17 10:17:29;;;;;;;;;5.00;5.00;;;;;;;;5121191;27;45311;-75
2022/04/17 10:19:56;;;;;;;;;3.00;3.00;;;;;;;;5104617;27;46168;-77
2022/04/17 10:22:24;;;;;;;;;2.33;2.33;;;;;;;;5123340;27;46509;-74
2022/04/17 10:24:54;;;;;;;;;8.67;8.67;;;;;;;;5104707;27;45402;-75
2022/04/17 10:27:32;;;;;;;;;3.00;3.00;;;;;;;;5123172;27;45217;-75
2022/04/17 10:30:07;;;;;;;;;5.00;5.00;;;;;;;;5122838;27;45237;-75
2022/04/17 10:32:33;;;;;;;;;4.67;4.67;;;;;;;;5122922;27;47479;-75
2022/04/17 10:35:10;;;;;;;;;5.33;5.33;;;;;;;;5123162;27;45287;-74
2022/04/17 10:37:54;;;;;;;;;4.00;4.00;;;;;;;;5123430;27;45330;-75
2022/04/17 10:40:20;;;;;;;;;19.67;18.67;;;;;;;;5123250;27;46006;-75
2022/04/17 10:42:55;;;;;;;;;4.00;4.00;;;;;;;;5123129;27;45365;-75
2022/04/17 10:45:22;;;;;;;;;4.00;4.00;;;;;;;;5120128;27;45442;-75
2022/04/17 10:48:20;;;;;;;;;8.33;7.67;;;;;;;;5123185;27;45274;-75
2022/04/17 10:50:48;;;;;;;;;10.33;9.33;;;;;;;;5048239;27;46456;-75
2022/04/17 10:53:26;;;;;;;;;4.67;4.67;;;;;;;;5124844;27;46276;-79
2022/04/17 10:56:01;;;;;;;;;6.00;6.00;;;;;;;;5107073;27;45457;-77
2022/04/17 10:58:53;;;;;;;;;4.67;4.67;;;;;;;;5104811;27;45528;-75
2022/04/17 11:01:38;;;;;;;;;7.33;7.33;;;;;;;;5097309;27;46278;-77
2022/04/17 11:04:14;;;;;;;;;14.00;13.33;;;;;;;;5124448;27;45356;-77
2022/04/17 11:06:39;;;;;;;;;6.67;6.67;;;;;;;;5121623;27;45362;-80
2022/04/17 11:09:09;;;;;;;;;5.00;5.00;;;;;;;;5121790;27;45531;-79
2022/04/17 11:11:35;;;;;;;;;5.00;5.00;;;;;;;;5120738;27;45340;-78
2022/04/17 11:14:04;;;;;;;;;5.00;5.00;;;;;;;;5100273;27;47555;-78
2022/04/17 11:16:36;;;;;;;;;3.00;3.00;;;;;;;;5117925;27;45439;-79
2022/04/17 11:19:01;;;;;;;;;0.00;0.00;;;;;;;;5097298;27;45350;-78
2022/04/17 11:21:36;;;;;;;;;6.33;5.00;;;;;;;;5120576;27;45508;-79
2022/04/17 11:24:01;;;;;;;;;5.00;5.00;;;;;;;;5103785;27;45975;-79
2022/04/17 11:27:05;;;;;;;;;4.00;4.00;;;;;;;;5102690;27;45265;-80
2022/04/17 11:29:33;;;;;;;;;5.33;5.00;;;;;;;;5020074;28;45303;-79
2022/04/17 11:31:59;;;;;;;;;7.33;7.33;;;;;;;;5017451;28;45417;-79
2022/04/17 11:34:24;;;;;;;;;6.00;6.00;;;;;;;;5067605;27;46506;-80
2022/04/17 11:36:50;;;;;;;;;6.00;6.00;;;;;;;;5120843;27;45425;-80
2022/04/17 11:39:25;;;;;;;;;6.00;6.00;;;;;;;;5118280;27;45540;-79
2022/04/17 11:41:51;;;;;;;;;5.00;4.33;;;;;;;;5121851;27;45619;-79
2022/04/17 11:44:16;;;;;;;;;6.00;6.00;;;;;;;;5102057;27;45917;-80
2022/04/17 11:46:42;;;;;;;;;5.67;5.67;;;;;;;;5111557;27;45333;-80
2022/04/17 11:49:07;;;;;;;;;5.00;5.00;;;;;;;;5113222;27;45327;-80
2022/04/17 11:51:41;;;;;;;;;5.67;5.67;;;;;;;;5102838;27;47044;-81
2022/04/17 11:54:06;;;;;;;;;7.67;6.67;;;;;;;;5104831;27;48414;-78
2022/04/17 11:56:50;;;;;;;;;4.00;4.00;;;;;;;;5111205;27;45318;-82
2022/04/17 11:59:15;;;;;;;;;5.00;5.00;;;;;;;;5101299;27;45350;-80
2022/04/17 12:01:41;;;;;;;;;3.00;3.00;;;;;;;;5082140;27;47293;-79
2022/04/17 12:04:06;;;;;;;;;7.67;7.67;;;;;;;;5101166;27;45507;-79
2022/04/17 12:06:34;;;;;;;;;6.00;6.00;;;;;;;;5100909;27;45369;-80
2022/04/17 12:09:01;;;;;;;;;4.00;4.00;;;;;;;;5100832;27;45307;-79
2022/04/17 12:11:26;;;;;;;;;4.00;4.00;;;;;;;;5100661;27;45435;-79
2022/04/17 12:13:54;;;;;;;;;5.00;5.00;;;;;;;;5100824;27;46224;-79
2022/04/17 12:16:20;;;;;;;;;4.00;4.00;;;;;;;;5097562;27;45473;-80
2022/04/17 12:18:53;;;;;;;;;4.00;4.00;;;;;;;;5119359;27;45387;-79
2022/04/17 12:21:26;;;;;;;;;4.00;4.00;;;;;;;;5103246;27;47397;-80
2022/04/17 12:23:53;;;;;;;;;6.67;6.67;;;;;;;;5101993;27;46289;-81
2022/04/17 12:26:19;;;;;;;;;4.67;4.67;;;;;;;;5120862;27;45274;-79
2022/04/17 12:28:45;;;;;;;;;9.00;9.00;;;;;;;;5121679;27;45320;-79
2022/04/17 12:31:12;;;;;;;;;7.67;7.67;;;;;;;;5121189;27;45437;-80
2022/04/17 12:33:38;;;;;;;;;6.00;5.00;;;;;;;;5120520;27;45487;-78
2022/04/17 12:36:11;;;;;;;;;4.00;4.00;;;;;;;;5100501;27;45299;-79
2022/04/17 12:38:37;;;;;;;;;2.67;2.67;;;;;;;;5100881;27;45379;-79
2022/04/17 12:41:15;;;;;;;;;3.67;3.67;;;;;;;;5080947;27;46245;-78
2022/04/17 12:43:41;;;;;;;;;7.33;6.00;;;;;;;;5100518;27;45160;-79
2022/04/17 12:46:06;;;;;;;;;5.33;5.00;;;;;;;;5089098;27;45316;-79
2022/04/17 12:48:35;;;;;;;;;4.67;4.67;;;;;;;;5120610;27;45230;-78
2022/04/17 12:51:03;;;;;;;;;3.33;3.33;;;;;;;;5120948;27;45470;-79
2022/04/17 12:53:42;;;;;;;;;3.00;3.00;;;;;;;;5121035;27;45438;-79
2022/04/17 12:56:08;;;;;;;;;4.00;3.00;;;;;;;;5120975;27;45155;-80
2022/04/17 12:59:07;;;;;;;;;4.33;4.33;;;;;;;;5121089;27;45213;-79
2022/04/17 13:01:33;;;;;;;;;4.00;4.00;;;;;;;;5065518;27;45591;-79
2022/04/17 13:04:20;;;;;;;;;5.00;5.00;;;;;;;;5120540;27;46181;-80
2022/04/17 13:06:45;;;;;;;;;1.67;1.67;;;;;;;;5101385;27;45324;-81
2022/04/17 13:09:18;;;;;;;;;5.00;5.00;;;;;;;;5121144;27;45231;-79
2022/04/17 13:11:44;;;;;;;;;3.33;3.33;;;;;;;;5121405;27;45318;-80
2022/04/17 13:14:09;;;;;;;;;3.67;3.67;;;;;;;;5101824;27;47167;-80
2022/04/17 13:16:46;;;;;;;;;2.00;2.00;;;;;;;;5120668;27;45280;-80
2022/04/17 13:19:11;;;;;;;;;2.67;2.67;;;;;;;;5120771;27;45266;-79
2022/04/17 13:21:36;;;;;;;;;3.00;3.00;;;;;;;;5120484;27;45285;-79
2022/04/17 13:24:03;;;;;;;;;6.33;6.33;;;;;;;;5121036;27;45257;-79
2022/04/17 13:26:29;;;;;;;;;4.00;4.00;;;;;;;;5102712;27;45188;-79
2022/04/17 13:28:54;;;;;;;;;2.67;2.67;;;;;;;;5097093;27;45558;-80
2022/04/17 13:31:20;;;;;;;;;3.33;3.33;;;;;;;;5117800;27;45486;-79
2022/04/17 13:33:45;;;;;;;;;3.33;3.33;;;;;;;;5122580;27;45423;-79
2022/04/17 13:36:10;;;;;;;;;3.67;3.33;;;;;;;;5120387;27;45432;-80
2022/04/17 13:38:36;;;;;;;;;2.00;2.00;;;;;;;;5121707;27;45283;-80
2022/04/17 13:41:01;;;;;;;;;2.67;2.00;;;;;;;;5106104;27;45259;-80
2022/04/17 13:43:27;;;;;;;;;2.33;2.33;;;;;;;;5124422;27;45424;-78
2022/04/17 13:45:52;;;;;;;;;3.00;3.00;;;;;;;;5123580;27;45263;-79
2022/04/17 13:48:17;;;;;;;;;4.00;4.00;;;;;;;;5122087;27;45340;-79
2022/04/17 13:50:43;;;;;;;;;2.00;2.00;;;;;;;;5124448;27;45381;-78
2022/04/17 13:53:08;;;;;;;;;3.00;3.00;;;;;;;;5126483;27;46132;-79
2022/04/17 13:55:35;;;;;;;;;2.00;2.00;;;;;;;;5126082;27;45370;-80
2022/04/17 13:58:00;;;;;;;;;2.00;2.00;;;;;;;;5125144;27;45156;-80
2022/04/17 14:00:26;;;;;;;;;5.33;5.33;;;;;;;;5125838;27;45135;-78
2022/04/17 14:02:51;;;;;;;;;5.67;5.67;;;;;;;;5131676;27;46149;-78
2022/04/17 14:05:16;;;;;;;;;3.67;3.67;;;;;;;;5129082;27;45192;-79
2022/04/17 14:07:42;;;;;;;;;3.00;3.00;;;;;;;;5109808;27;45315;-78
2022/04/17 14:10:07;;;;;;;;;1.00;1.00;;;;;;;;5110848;27;46176;-79
2022/04/17 14:12:33;;;;;;;;;2.33;2.33;;;;;;;;5128642;27;47181;-78
2022/04/17 14:14:58;;;;;;;;;2.00;2.00;;;;;;;;5130992;27;45257;-79
2022/04/17 14:17:24;;;;;;;;;3.00;3.00;;;;;;;;5117021;27;45304;-79
2022/04/17 14:19:50;;;;;;;;;2.00;2.00;;;;;;;;5137762;27;45460;-80
2022/04/17 14:22:16;;;;;;;;;3.33;3.33;;;;;;;;5114401;27;47326;-79
2022/04/17 14:24:42;;;;;;;;;1.00;1.00;;;;;;;;5134301;27;45443;-81
2022/04/17 14:27:07;;;;;;;;;2.00;2.00;;;;;;;;5112074;27;45357;-80
2022/04/17 14:29:32;;;;;;;;;2.00;2.00;;;;;;;;5122933;27;45451;-81
2022/04/17 14:31:57;;;;;;;;;2.67;1.33;;;;;;;;5123656;27;45317;-79
2022/04/17 14:34:22;;;;;;;;;2.00;2.00;;;;;;;;5123236;27;45814;-79
2022/04/17 14:36:48;;;;;;;;;1.00;1.00;;;;;;;;5123826;27;45298;-81
2022/04/17 14:39:13;;;;;;;;;2.33;2.33;;;;;;;;5122913;27;45313;-80
2022/04/17 14:41:39;;;;;;;;;2.67;1.00;;;;;;;;5123206;27;46479;-79
2022/04/17 14:44:05;;;;;;;;;0.67;0.67;;;;;;;;5123661;27;45230;-78
2022/04/17 14:46:30;;;;;;;;;1.67;1.67;;;;;;;;5117948;27;49489;-78
2022/04/17 14:48:56;;;;;;;;;0.00;0.00;;;;;;;;5105033;27;47339;-80
2022/04/17 14:51:40;;;;;;;;;2.67;1.67;;;;;;;;5122668;27;45344;-79
2022/04/17 14:54:13;;;;;;;;;1.00;1.00;;;;;;;;5122196;27;46026;-80
2022/04/17 15:06:14;;;;;;;;;0.33;0.33;;;;;;;;5018030;28;45578;-79
2022/04/17 15:08:39;;;;;;;;;1.67;1.67;;;;;;;;5003315;28;45443;-79